sensor_id;sensor_type;location;lat;lon;timestamp;P1;durP1;ratioP1;P2;durP2;ratioP2
60472;SDS011;46318;52.716;6.444;2024-02-21T00:02:20;13.52;;;8.93;;
60472;SDS011;46318;52.716;6.444;2024-02-21T00:04:46;15.85;;;8.05;;
60472;SDS011;46318;52.716;6.444;2024-02-21T00:07:12;16.23;;;8.63;;
60472;SDS011;46318;52.716;6.444;2024-02-21T00:09:38;15.35;;;8.68;;
60472;SDS011;46318;52.716;6.444;2024-02-21T00:12:03;15.60;;;8.43;;
60472;SDS011;46318;52.716;6.444;2024-02-21T00:14:30;15.25;;;8.35;;
60472;SDS011;46318;52.716;6.444;2024-02-21T00:16:56;16.38;;;8.90;;
60472;SDS011;46318;52.716;6.444;2024-02-21T00:19:22;18.25;;;8.48;;
60472;SDS011;46318;52.716;6.444;2024-02-21T00:21:47;14.82;;;9.10;;
60472;SDS011;46318;52.716;6.444;2024-02-21T00:24:13;17.05;;;9.15;;
60472;SDS011;46318;52.716;6.444;2024-02-21T00:26:39;17.35;;;8.75;;
60472;SDS011;46318;52.716;6.444;2024-02-21T00:29:05;15.75;;;7.53;;
60472;SDS011;46318;52.716;6.444;2024-02-21T00:31:30;13.57;;;7.50;;
60472;SDS011;46318;52.716;6.444;2024-02-21T00:33:56;15.38;;;8.05;;
60472;SDS011;46318;52.716;6.444;2024-02-21T00:36:23;18.13;;;8.23;;
60472;SDS011;46318;52.716;6.444;2024-02-21T00:38:49;13.35;;;7.90;;
60472;SDS011;46318;52.716;6.444;2024-02-21T00:41:14;17.17;;;8.23;;
60472;SDS011;46318;52.716;6.444;2024-02-21T00:43:41;15.32;;;7.72;;
60472;SDS011;46318;52.716;6.444;2024-02-21T00:46:07;14.85;;;7.72;;
60472;SDS011;46318;52.716;6.444;2024-02-21T00:48:33;16.40;;;7.82;;
60472;SDS011;46318;52.716;6.444;2024-02-21T00:50:59;16.77;;;7.20;;
60472;SDS011;46318;52.716;6.444;2024-02-21T00:53:25;16.02;;;7.50;;
60472;SDS011;46318;52.716;6.444;2024-02-21T00:55:51;18.00;;;7.45;;
60472;SDS011;46318;52.716;6.444;2024-02-21T00:58:17;16.88;;;7.75;;
60472;SDS011;46318;52.716;6.444;2024-02-21T01:00:43;16.67;;;7.03;;
60472;SDS011;46318;52.716;6.444;2024-02-21T01:03:08;15.23;;;7.47;;
60472;SDS011;46318;52.716;6.444;2024-02-21T01:05:34;17.10;;;7.97;;
60472;SDS011;46318;52.716;6.444;2024-02-21T01:08:00;16.73;;;7.82;;
60472;SDS011;46318;52.716;6.444;2024-02-21T01:10:26;17.27;;;7.80;;
60472;SDS011;46318;52.716;6.444;2024-02-21T01:12:52;18.40;;;7.65;;
60472;SDS011;46318;52.716;6.444;2024-02-21T01:15:17;17.73;;;8.05;;
60472;SDS011;46318;52.716;6.444;2024-02-21T01:17:43;16.38;;;7.10;;
60472;SDS011;46318;52.716;6.444;2024-02-21T01:20:09;18.98;;;7.82;;
60472;SDS011;46318;52.716;6.444;2024-02-21T01:22:35;18.42;;;7.57;;
60472;SDS011;46318;52.716;6.444;2024-02-21T01:25:02;16.70;;;8.18;;
60472;SDS011;46318;52.716;6.444;2024-02-21T01:27:28;25.35;;;8.63;;
60472;SDS011;46318;52.716;6.444;2024-02-21T01:29:54;18.58;;;7.80;;
60472;SDS011;46318;52.716;6.444;2024-02-21T01:32:19;20.80;;;8.20;;
60472;SDS011;46318;52.716;6.444;2024-02-21T01:34:47;18.88;;;8.18;;
60472;SDS011;46318;52.716;6.444;2024-02-21T01:37:12;16.83;;;8.20;;
60472;SDS011;46318;52.716;6.444;2024-02-21T01:39:38;19.38;;;8.25;;
60472;SDS011;46318;52.716;6.444;2024-02-21T01:42:04;20.20;;;8.43;;
60472;SDS011;46318;52.716;6.444;2024-02-21T01:44:30;20.30;;;9.02;;
60472;SDS011;46318;52.716;6.444;2024-02-21T01:46:56;20.38;;;9.00;;
60472;SDS011;46318;52.716;6.444;2024-02-21T01:49:22;20.27;;;8.93;;
60472;SDS011;46318;52.716;6.444;2024-02-21T01:51:48;21.50;;;9.43;;
60472;SDS011;46318;52.716;6.444;2024-02-21T01:54:16;20.27;;;8.60;;
60472;SDS011;46318;52.716;6.444;2024-02-21T01:56:44;21.17;;;8.77;;
60472;SDS011;46318;52.716;6.444;2024-02-21T01:59:11;21.40;;;9.00;;
60472;SDS011;46318;52.716;6.444;2024-02-21T02:01:37;20.90;;;8.70;;
60472;SDS011;46318;52.716;6.444;2024-02-21T02:04:04;18.73;;;8.48;;
60472;SDS011;46318;52.716;6.444;2024-02-21T02:06:31;25.60;;;9.30;;
60472;SDS011;46318;52.716;6.444;2024-02-21T02:08:57;24.20;;;8.95;;
60472;SDS011;46318;52.716;6.444;2024-02-21T02:11:23;22.05;;;9.35;;
60472;SDS011;46318;52.716;6.444;2024-02-21T02:13:49;24.20;;;9.35;;
60472;SDS011;46318;52.716;6.444;2024-02-21T02:16:14;26.23;;;11.30;;
60472;SDS011;46318;52.716;6.444;2024-02-21T02:18:40;22.38;;;10.50;;
60472;SDS011;46318;52.716;6.444;2024-02-21T02:21:13;25.48;;;11.65;;
60472;SDS011;46318;52.716;6.444;2024-02-21T02:23:51;27.50;;;12.65;;
60472;SDS011;46318;52.716;6.444;2024-02-21T02:26:17;20.45;;;11.68;;
60472;SDS011;46318;52.716;6.444;2024-02-21T02:28:43;28.15;;;12.25;;
60472;SDS011;46318;52.716;6.444;2024-02-21T02:31:09;25.98;;;12.48;;
60472;SDS011;46318;52.716;6.444;2024-02-21T02:33:34;27.25;;;12.88;;
60472;SDS011;46318;52.716;6.444;2024-02-21T02:36:00;30.35;;;13.25;;
60472;SDS011;46318;52.716;6.444;2024-02-21T02:38:26;25.98;;;14.13;;
60472;SDS011;46318;52.716;6.444;2024-02-21T02:40:52;32.03;;;14.05;;
60472;SDS011;46318;52.716;6.444;2024-02-21T02:43:17;29.92;;;14.80;;
60472;SDS011;46318;52.716;6.444;2024-02-21T02:45:44;32.97;;;14.73;;
60472;SDS011;46318;52.716;6.444;2024-02-21T02:48:10;34.10;;;15.55;;
60472;SDS011;46318;52.716;6.444;2024-02-21T02:50:36;34.10;;;15.13;;
60472;SDS011;46318;52.716;6.444;2024-02-21T02:53:02;30.08;;;13.82;;
60472;SDS011;46318;52.716;6.444;2024-02-21T02:55:28;33.42;;;14.93;;
60472;SDS011;46318;52.716;6.444;2024-02-21T02:57:54;29.05;;;14.32;;
60472;SDS011;46318;52.716;6.444;2024-02-21T03:00:21;37.45;;;14.70;;
60472;SDS011;46318;52.716;6.444;2024-02-21T03:02:48;29.20;;;14.93;;
60472;SDS011;46318;52.716;6.444;2024-02-21T03:05:19;28.60;;;14.50;;
60472;SDS011;46318;52.716;6.444;2024-02-21T03:07:46;34.65;;;14.93;;
60472;SDS011;46318;52.716;6.444;2024-02-21T03:10:14;33.83;;;15.38;;
60472;SDS011;46318;52.716;6.444;2024-02-21T03:12:41;29.83;;;14.63;;
60472;SDS011;46318;52.716;6.444;2024-02-21T03:15:07;32.30;;;14.73;;
60472;SDS011;46318;52.716;6.444;2024-02-21T03:17:34;35.60;;;14.57;;
60472;SDS011;46318;52.716;6.444;2024-02-21T03:20:01;31.83;;;14.55;;
60472;SDS011;46318;52.716;6.444;2024-02-21T03:22:30;32.53;;;14.57;;
60472;SDS011;46318;52.716;6.444;2024-02-21T03:25:00;32.78;;;14.30;;
60472;SDS011;46318;52.716;6.444;2024-02-21T03:27:26;33.13;;;15.57;;
60472;SDS011;46318;52.716;6.444;2024-02-21T03:29:52;28.77;;;14.18;;
60472;SDS011;46318;52.716;6.444;2024-02-21T03:32:18;28.02;;;14.15;;
60472;SDS011;46318;52.716;6.444;2024-02-21T03:34:43;35.67;;;15.00;;
60472;SDS011;46318;52.716;6.444;2024-02-21T03:37:09;38.22;;;15.85;;
60472;SDS011;46318;52.716;6.444;2024-02-21T03:39:35;31.33;;;14.40;;
60472;SDS011;46318;52.716;6.444;2024-02-21T03:42:01;27.58;;;14.40;;
60472;SDS011;46318;52.716;6.444;2024-02-21T03:44:33;32.15;;;14.50;;
60472;SDS011;46318;52.716;6.444;2024-02-21T03:46:59;32.28;;;14.85;;
60472;SDS011;46318;52.716;6.444;2024-02-21T03:49:25;25.38;;;13.10;;
60472;SDS011;46318;52.716;6.444;2024-02-21T03:51:51;28.58;;;13.90;;
60472;SDS011;46318;52.716;6.444;2024-02-21T03:54:17;31.33;;;14.95;;
60472;SDS011;46318;52.716;6.444;2024-02-21T03:56:43;36.10;;;14.88;;
60472;SDS011;46318;52.716;6.444;2024-02-21T03:59:09;33.10;;;14.63;;
60472;SDS011;46318;52.716;6.444;2024-02-21T04:01:35;36.60;;;13.85;;
60472;SDS011;46318;52.716;6.444;2024-02-21T04:04:01;31.15;;;13.65;;
60472;SDS011;46318;52.716;6.444;2024-02-21T04:06:27;34.42;;;13.57;;
60472;SDS011;46318;52.716;6.444;2024-02-21T04:08:53;31.65;;;13.57;;
60472;SDS011;46318;52.716;6.444;2024-02-21T04:11:19;35.55;;;14.65;;
60472;SDS011;46318;52.716;6.444;2024-02-21T04:13:45;31.10;;;13.55;;
60472;SDS011;46318;52.716;6.444;2024-02-21T04:16:14;28.83;;;13.38;;
60472;SDS011;46318;52.716;6.444;2024-02-21T04:18:40;33.22;;;13.90;;
60472;SDS011;46318;52.716;6.444;2024-02-21T04:21:08;28.17;;;13.52;;
60472;SDS011;46318;52.716;6.444;2024-02-21T04:23:34;34.03;;;14.00;;
60472;SDS011;46318;52.716;6.444;2024-02-21T04:26:00;30.40;;;14.02;;
60472;SDS011;46318;52.716;6.444;2024-02-21T04:28:26;30.38;;;13.30;;
60472;SDS011;46318;52.716;6.444;2024-02-21T04:30:52;30.92;;;14.45;;
60472;SDS011;46318;52.716;6.444;2024-02-21T04:33:18;34.95;;;14.15;;
60472;SDS011;46318;52.716;6.444;2024-02-21T04:35:43;31.80;;;13.73;;
60472;SDS011;46318;52.716;6.444;2024-02-21T04:38:09;34.55;;;13.52;;
60472;SDS011;46318;52.716;6.444;2024-02-21T04:40:35;27.33;;;13.30;;
60472;SDS011;46318;52.716;6.444;2024-02-21T04:43:01;31.10;;;14.15;;
60472;SDS011;46318;52.716;6.444;2024-02-21T04:45:26;36.67;;;14.60;;
60472;SDS011;46318;52.716;6.444;2024-02-21T04:47:52;28.27;;;14.00;;
60472;SDS011;46318;52.716;6.444;2024-02-21T04:50:18;28.83;;;13.80;;
60472;SDS011;46318;52.716;6.444;2024-02-21T04:52:44;30.98;;;13.10;;
60472;SDS011;46318;52.716;6.444;2024-02-21T04:55:09;33.53;;;15.05;;
60472;SDS011;46318;52.716;6.444;2024-02-21T04:57:35;34.08;;;14.20;;
60472;SDS011;46318;52.716;6.444;2024-02-21T05:00:01;31.67;;;14.00;;
60472;SDS011;46318;52.716;6.444;2024-02-21T05:02:28;31.40;;;12.57;;
60472;SDS011;46318;52.716;6.444;2024-02-21T05:04:55;33.95;;;12.88;;
60472;SDS011;46318;52.716;6.444;2024-02-21T05:07:21;29.92;;;13.35;;
60472;SDS011;46318;52.716;6.444;2024-02-21T05:09:47;34.15;;;13.73;;
60472;SDS011;46318;52.716;6.444;2024-02-21T05:12:13;28.80;;;13.13;;
60472;SDS011;46318;52.716;6.444;2024-02-21T05:14:38;29.08;;;12.68;;
60472;SDS011;46318;52.716;6.444;2024-02-21T05:17:04;30.25;;;13.10;;
60472;SDS011;46318;52.716;6.444;2024-02-21T05:19:30;28.13;;;12.57;;
60472;SDS011;46318;52.716;6.444;2024-02-21T05:21:56;27.98;;;12.30;;
60472;SDS011;46318;52.716;6.444;2024-02-21T05:24:21;25.77;;;11.48;;
60472;SDS011;46318;52.716;6.444;2024-02-21T05:26:47;31.80;;;12.02;;
60472;SDS011;46318;52.716;6.444;2024-02-21T05:29:13;30.58;;;12.40;;
60472;SDS011;46318;52.716;6.444;2024-02-21T05:31:54;40.08;;;13.43;;
60472;SDS011;46318;52.716;6.444;2024-02-21T05:34:22;28.25;;;12.43;;
60472;SDS011;46318;52.716;6.444;2024-02-21T05:36:48;34.55;;;13.77;;
60472;SDS011;46318;52.716;6.444;2024-02-21T05:39:15;34.45;;;13.93;;
60472;SDS011;46318;52.716;6.444;2024-02-21T05:41:44;32.45;;;14.32;;
60472;SDS011;46318;52.716;6.444;2024-02-21T05:44:10;30.33;;;13.57;;
60472;SDS011;46318;52.716;6.444;2024-02-21T05:46:37;29.08;;;13.77;;
60472;SDS011;46318;52.716;6.444;2024-02-21T05:49:03;28.50;;;13.75;;
60472;SDS011;46318;52.716;6.444;2024-02-21T05:51:32;28.33;;;14.02;;
60472;SDS011;46318;52.716;6.444;2024-02-21T05:53:58;25.00;;;13.63;;
60472;SDS011;46318;52.716;6.444;2024-02-21T05:56:24;27.85;;;13.63;;
60472;SDS011;46318;52.716;6.444;2024-02-21T05:58:50;26.70;;;13.40;;
60472;SDS011;46318;52.716;6.444;2024-02-21T06:01:16;28.67;;;14.52;;
60472;SDS011;46318;52.716;6.444;2024-02-21T06:03:42;34.05;;;15.32;;
60472;SDS011;46318;52.716;6.444;2024-02-21T06:06:09;29.75;;;15.40;;
60472;SDS011;46318;52.716;6.444;2024-02-21T06:08:35;32.30;;;14.75;;
60472;SDS011;46318;52.716;6.444;2024-02-21T06:11:00;28.88;;;14.77;;
60472;SDS011;46318;52.716;6.444;2024-02-21T06:13:26;26.65;;;14.52;;
60472;SDS011;46318;52.716;6.444;2024-02-21T06:15:52;26.25;;;16.38;;
60472;SDS011;46318;52.716;6.444;2024-02-21T06:18:19;34.40;;;16.60;;
60472;SDS011;46318;52.716;6.444;2024-02-21T06:20:45;33.33;;;17.27;;
60472;SDS011;46318;52.716;6.444;2024-02-21T06:23:12;35.92;;;18.02;;
60472;SDS011;46318;52.716;6.444;2024-02-21T06:25:40;27.83;;;18.35;;
60472;SDS011;46318;52.716;6.444;2024-02-21T06:28:06;31.02;;;17.88;;
60472;SDS011;46318;52.716;6.444;2024-02-21T06:30:31;34.88;;;18.02;;
60472;SDS011;46318;52.716;6.444;2024-02-21T06:32:57;35.03;;;18.58;;
60472;SDS011;46318;52.716;6.444;2024-02-21T06:35:24;34.72;;;19.25;;
60472;SDS011;46318;52.716;6.444;2024-02-21T06:37:50;31.30;;;19.67;;
60472;SDS011;46318;52.716;6.444;2024-02-21T06:40:17;30.92;;;19.33;;
60472;SDS011;46318;52.716;6.444;2024-02-21T06:42:46;30.00;;;18.98;;
60472;SDS011;46318;52.716;6.444;2024-02-21T06:45:12;35.63;;;20.67;;
60472;SDS011;46318;52.716;6.444;2024-02-21T06:47:38;33.78;;;20.52;;
60472;SDS011;46318;52.716;6.444;2024-02-21T06:50:04;32.28;;;20.83;;
60472;SDS011;46318;52.716;6.444;2024-02-21T06:52:30;35.28;;;20.85;;
60472;SDS011;46318;52.716;6.444;2024-02-21T06:54:56;35.28;;;19.27;;
60472;SDS011;46318;52.716;6.444;2024-02-21T06:57:25;35.53;;;20.50;;
60472;SDS011;46318;52.716;6.444;2024-02-21T06:59:51;34.40;;;20.42;;
60472;SDS011;46318;52.716;6.444;2024-02-21T07:02:17;34.30;;;21.73;;
60472;SDS011;46318;52.716;6.444;2024-02-21T07:04:43;32.95;;;20.65;;
60472;SDS011;46318;52.716;6.444;2024-02-21T07:07:09;29.02;;;20.90;;
60472;SDS011;46318;52.716;6.444;2024-02-21T07:09:34;34.28;;;20.15;;
60472;SDS011;46318;52.716;6.444;2024-02-21T07:12:01;30.98;;;20.10;;
60472;SDS011;46318;52.716;6.444;2024-02-21T07:14:30;38.83;;;20.30;;
60472;SDS011;46318;52.716;6.444;2024-02-21T07:16:57;32.10;;;21.40;;
60472;SDS011;46318;52.716;6.444;2024-02-21T07:19:23;35.30;;;20.58;;
60472;SDS011;46318;52.716;6.444;2024-02-21T07:21:49;32.50;;;20.58;;
60472;SDS011;46318;52.716;6.444;2024-02-21T07:24:15;28.58;;;20.83;;
60472;SDS011;46318;52.716;6.444;2024-02-21T07:26:41;30.52;;;20.10;;
60472;SDS011;46318;52.716;6.444;2024-02-21T07:29:10;28.92;;;20.38;;
60472;SDS011;46318;52.716;6.444;2024-02-21T07:31:42;28.42;;;19.60;;
60472;SDS011;46318;52.716;6.444;2024-02-21T07:34:08;29.73;;;19.95;;
60472;SDS011;46318;52.716;6.444;2024-02-21T07:36:35;26.92;;;20.55;;
60472;SDS011;46318;52.716;6.444;2024-02-21T07:39:02;26.52;;;20.20;;
60472;SDS011;46318;52.716;6.444;2024-02-21T07:41:29;28.73;;;20.05;;
60472;SDS011;46318;52.716;6.444;2024-02-21T07:43:55;31.50;;;22.38;;
60472;SDS011;46318;52.716;6.444;2024-02-21T07:46:22;27.70;;;21.23;;
60472;SDS011;46318;52.716;6.444;2024-02-21T07:48:48;31.50;;;22.10;;
60472;SDS011;46318;52.716;6.444;2024-02-21T07:51:13;30.35;;;22.58;;
60472;SDS011;46318;52.716;6.444;2024-02-21T07:53:41;36.03;;;23.92;;
60472;SDS011;46318;52.716;6.444;2024-02-21T07:56:10;28.52;;;22.30;;
60472;SDS011;46318;52.716;6.444;2024-02-21T07:58:37;32.47;;;24.20;;
60472;SDS011;46318;52.716;6.444;2024-02-21T08:01:02;31.27;;;25.02;;
60472;SDS011;46318;52.716;6.444;2024-02-21T08:03:28;33.47;;;24.95;;
60472;SDS011;46318;52.716;6.444;2024-02-21T08:05:54;29.38;;;24.38;;
60472;SDS011;46318;52.716;6.444;2024-02-21T08:08:20;36.17;;;25.27;;
60472;SDS011;46318;52.716;6.444;2024-02-21T08:10:47;33.80;;;24.92;;
60472;SDS011;46318;52.716;6.444;2024-02-21T08:13:14;32.35;;;26.02;;
60472;SDS011;46318;52.716;6.444;2024-02-21T08:15:40;32.42;;;25.92;;
60472;SDS011;46318;52.716;6.444;2024-02-21T08:18:07;32.25;;;25.15;;
60472;SDS011;46318;52.716;6.444;2024-02-21T08:20:33;33.72;;;25.20;;
60472;SDS011;46318;52.716;6.444;2024-02-21T08:23:00;32.45;;;25.92;;
60472;SDS011;46318;52.716;6.444;2024-02-21T08:25:26;34.38;;;25.30;;
60472;SDS011;46318;52.716;6.444;2024-02-21T08:27:58;31.13;;;24.70;;
60472;SDS011;46318;52.716;6.444;2024-02-21T08:30:24;32.90;;;25.90;;
60472;SDS011;46318;52.716;6.444;2024-02-21T08:32:50;33.25;;;24.52;;
60472;SDS011;46318;52.716;6.444;2024-02-21T08:35:16;35.20;;;25.33;;
60472;SDS011;46318;52.716;6.444;2024-02-21T08:37:45;33.53;;;25.25;;
60472;SDS011;46318;52.716;6.444;2024-02-21T08:40:13;34.95;;;25.55;;
60472;SDS011;46318;52.716;6.444;2024-02-21T08:42:42;31.48;;;25.35;;
60472;SDS011;46318;52.716;6.444;2024-02-21T08:45:12;31.65;;;25.83;;
60472;SDS011;46318;52.716;6.444;2024-02-21T08:47:41;33.83;;;26.35;;
60472;SDS011;46318;52.716;6.444;2024-02-21T08:50:08;35.72;;;26.40;;
60472;SDS011;46318;52.716;6.444;2024-02-21T08:52:37;31.65;;;25.50;;
60472;SDS011;46318;52.716;6.444;2024-02-21T08:55:03;33.30;;;26.40;;
60472;SDS011;46318;52.716;6.444;2024-02-21T08:57:29;36.95;;;26.25;;
60472;SDS011;46318;52.716;6.444;2024-02-21T09:00:02;35.33;;;27.50;;
60472;SDS011;46318;52.716;6.444;2024-02-21T09:02:41;33.03;;;26.30;;
60472;SDS011;46318;52.716;6.444;2024-02-21T09:05:08;30.55;;;27.08;;
60472;SDS011;46318;52.716;6.444;2024-02-21T09:07:34;35.42;;;27.77;;
60472;SDS011;46318;52.716;6.444;2024-02-21T09:10:00;35.45;;;27.83;;
60472;SDS011;46318;52.716;6.444;2024-02-21T09:12:26;34.47;;;28.20;;
60472;SDS011;46318;52.716;6.444;2024-02-21T09:14:51;32.95;;;26.70;;
60472;SDS011;46318;52.716;6.444;2024-02-21T09:17:17;33.72;;;27.45;;
60472;SDS011;46318;52.716;6.444;2024-02-21T09:19:45;30.27;;;27.00;;
60472;SDS011;46318;52.716;6.444;2024-02-21T09:22:13;31.02;;;25.63;;
60472;SDS011;46318;52.716;6.444;2024-02-21T09:24:39;31.70;;;26.63;;
60472;SDS011;46318;52.716;6.444;2024-02-21T09:27:05;33.58;;;27.52;;
60472;SDS011;46318;52.716;6.444;2024-02-21T09:29:31;32.17;;;25.98;;
60472;SDS011;46318;52.716;6.444;2024-02-21T09:31:58;32.67;;;26.25;;
60472;SDS011;46318;52.716;6.444;2024-02-21T09:34:24;32.97;;;25.08;;
60472;SDS011;46318;52.716;6.444;2024-02-21T09:36:50;30.88;;;24.40;;
60472;SDS011;46318;52.716;6.444;2024-02-21T09:39:17;29.63;;;25.83;;
60472;SDS011;46318;52.716;6.444;2024-02-21T09:41:48;30.30;;;25.77;;
60472;SDS011;46318;52.716;6.444;2024-02-21T09:44:21;27.95;;;22.65;;
60472;SDS011;46318;52.716;6.444;2024-02-21T09:49:49;29.73;;;22.35;;
60472;SDS011;46318;52.716;6.444;2024-02-21T09:52:17;30.58;;;21.73;;
60472;SDS011;46318;52.716;6.444;2024-02-21T09:54:44;27.83;;;22.63;;
60472;SDS011;46318;52.716;6.444;2024-02-21T09:57:10;32.55;;;23.35;;
60472;SDS011;46318;52.716;6.444;2024-02-21T09:59:37;24.90;;;21.90;;
60472;SDS011;46318;52.716;6.444;2024-02-21T10:02:03;25.65;;;21.38;;
60472;SDS011;46318;52.716;6.444;2024-02-21T10:04:30;26.95;;;20.83;;
60472;SDS011;46318;52.716;6.444;2024-02-21T10:06:57;27.70;;;19.02;;
60472;SDS011;46318;52.716;6.444;2024-02-21T10:09:23;27.70;;;20.05;;
60472;SDS011;46318;52.716;6.444;2024-02-21T10:11:53;25.48;;;19.48;;
60472;SDS011;46318;52.716;6.444;2024-02-21T10:14:20;21.20;;;18.15;;
60472;SDS011;46318;52.716;6.444;2024-02-21T10:16:47;23.02;;;17.58;;
60472;SDS011;46318;52.716;6.444;2024-02-21T10:19:21;22.75;;;18.10;;
60472;SDS011;46318;52.716;6.444;2024-02-21T10:24:34;21.17;;;17.00;;
60472;SDS011;46318;52.716;6.444;2024-02-21T10:27:02;24.40;;;15.93;;
60472;SDS011;46318;52.716;6.444;2024-02-21T10:29:33;20.90;;;17.20;;
60472;SDS011;46318;52.716;6.444;2024-02-21T10:32:10;21.95;;;16.35;;
60472;SDS011;46318;52.716;6.444;2024-02-21T10:34:38;22.58;;;16.05;;
60472;SDS011;46318;52.716;6.444;2024-02-21T10:37:05;20.85;;;16.38;;
60472;SDS011;46318;52.716;6.444;2024-02-21T10:39:40;19.17;;;16.25;;
60472;SDS011;46318;52.716;6.444;2024-02-21T10:42:07;20.98;;;15.75;;
60472;SDS011;46318;52.716;6.444;2024-02-21T10:44:37;22.20;;;15.55;;
60472;SDS011;46318;52.716;6.444;2024-02-21T10:49:39;21.08;;;15.23;;
60472;SDS011;46318;52.716;6.444;2024-02-21T10:54:55;21.83;;;16.45;;
60472;SDS011;46318;52.716;6.444;2024-02-21T10:57:28;21.40;;;15.15;;
60472;SDS011;46318;52.716;6.444;2024-02-21T10:59:56;19.73;;;15.25;;
60472;SDS011;46318;52.716;6.444;2024-02-21T11:02:24;19.95;;;14.27;;
60472;SDS011;46318;52.716;6.444;2024-02-21T11:04:53;17.33;;;14.23;;
60472;SDS011;46318;52.716;6.444;2024-02-21T11:07:20;21.00;;;14.50;;
60472;SDS011;46318;52.716;6.444;2024-02-21T11:09:53;23.58;;;15.80;;
60472;SDS011;46318;52.716;6.444;2024-02-21T11:12:22;19.77;;;14.93;;
60472;SDS011;46318;52.716;6.444;2024-02-21T11:14:49;18.17;;;14.63;;
60472;SDS011;46318;52.716;6.444;2024-02-21T11:17:18;19.58;;;14.30;;
60472;SDS011;46318;52.716;6.444;2024-02-21T11:19:46;19.77;;;14.13;;
60472;SDS011;46318;52.716;6.444;2024-02-21T11:22:15;18.50;;;14.55;;
60472;SDS011;46318;52.716;6.444;2024-02-21T11:24:42;16.33;;;14.65;;
60472;SDS011;46318;52.716;6.444;2024-02-21T11:27:15;17.17;;;14.18;;
60472;SDS011;46318;52.716;6.444;2024-02-21T11:29:54;20.25;;;14.02;;
60472;SDS011;46318;52.716;6.444;2024-02-21T11:32:24;16.52;;;13.98;;
60472;SDS011;46318;52.716;6.444;2024-02-21T11:35:04;18.38;;;14.65;;
60472;SDS011;46318;52.716;6.444;2024-02-21T11:37:31;17.15;;;13.95;;
60472;SDS011;46318;52.716;6.444;2024-02-21T11:39:58;19.27;;;14.52;;
60472;SDS011;46318;52.716;6.444;2024-02-21T11:42:25;17.45;;;14.82;;
60472;SDS011;46318;52.716;6.444;2024-02-21T11:44:53;17.30;;;14.13;;
60472;SDS011;46318;52.716;6.444;2024-02-21T11:47:21;16.17;;;13.32;;
60472;SDS011;46318;52.716;6.444;2024-02-21T11:49:48;15.18;;;13.00;;
60472;SDS011;46318;52.716;6.444;2024-02-21T11:52:18;16.58;;;12.48;;
60472;SDS011;46318;52.716;6.444;2024-02-21T11:54:50;14.73;;;12.32;;
60472;SDS011;46318;52.716;6.444;2024-02-21T11:57:17;14.68;;;11.82;;
60472;SDS011;46318;52.716;6.444;2024-02-21T11:59:46;13.70;;;12.18;;
60472;SDS011;46318;52.716;6.444;2024-02-21T12:02:14;13.07;;;10.90;;
60472;SDS011;46318;52.716;6.444;2024-02-21T12:04:40;14.15;;;11.15;;
60472;SDS011;46318;52.716;6.444;2024-02-21T12:07:07;14.40;;;11.57;;
60472;SDS011;46318;52.716;6.444;2024-02-21T12:09:33;12.20;;;10.68;;
60472;SDS011;46318;52.716;6.444;2024-02-21T12:12:01;12.25;;;10.85;;
60472;SDS011;46318;52.716;6.444;2024-02-21T12:14:29;11.88;;;10.57;;
60472;SDS011;46318;52.716;6.444;2024-02-21T12:16:55;11.82;;;10.73;;
60472;SDS011;46318;52.716;6.444;2024-02-21T12:19:22;11.18;;;10.05;;
60472;SDS011;46318;52.716;6.444;2024-02-21T12:21:48;12.40;;;10.68;;
60472;SDS011;46318;52.716;6.444;2024-02-21T12:24:23;12.05;;;9.95;;
60472;SDS011;46318;52.716;6.444;2024-02-21T12:26:50;16.15;;;10.25;;
60472;SDS011;46318;52.716;6.444;2024-02-21T12:29:17;11.60;;;10.25;;
60472;SDS011;46318;52.716;6.444;2024-02-21T12:31:44;10.30;;;9.30;;
60472;SDS011;46318;52.716;6.444;2024-02-21T12:34:14;9.32;;;8.32;;
60472;SDS011;46318;52.716;6.444;2024-02-21T12:36:43;9.48;;;8.57;;
60472;SDS011;46318;52.716;6.444;2024-02-21T12:39:13;8.68;;;7.78;;
60472;SDS011;46318;52.716;6.444;2024-02-21T12:41:39;9.02;;;8.10;;
60472;SDS011;46318;52.716;6.444;2024-02-21T12:44:06;9.63;;;8.77;;
60472;SDS011;46318;52.716;6.444;2024-02-21T12:46:35;65.05;;;54.08;;
60472;SDS011;46318;52.716;6.444;2024-02-21T12:49:02;77.55;;;62.83;;
60472;SDS011;46318;52.716;6.444;2024-02-21T12:51:29;21.88;;;19.77;;
60472;SDS011;46318;52.716;6.444;2024-02-21T12:53:57;17.27;;;15.65;;
60472;SDS011;46318;52.716;6.444;2024-02-21T12:56:24;22.15;;;20.38;;
60472;SDS011;46318;52.716;6.444;2024-02-21T12:58:52;16.60;;;15.05;;
60472;SDS011;46318;52.716;6.444;2024-02-21T13:01:18;23.33;;;19.05;;
60472;SDS011;46318;52.716;6.444;2024-02-21T13:03:44;14.38;;;12.95;;
60472;SDS011;46318;52.716;6.444;2024-02-21T13:06:13;11.70;;;10.48;;
60472;SDS011;46318;52.716;6.444;2024-02-21T13:08:39;12.23;;;11.02;;
60472;SDS011;46318;52.716;6.444;2024-02-21T13:11:06;13.20;;;12.00;;
60472;SDS011;46318;52.716;6.444;2024-02-21T13:13:32;12.48;;;11.20;;
60472;SDS011;46318;52.716;6.444;2024-02-21T13:15:58;18.13;;;10.73;;
60472;SDS011;46318;52.716;6.444;2024-02-21T13:19:26;12.63;;;9.68;;
60472;SDS011;46318;52.716;6.444;2024-02-21T13:21:52;14.40;;;12.90;;
60472;SDS011;46318;52.716;6.444;2024-02-21T13:24:18;12.48;;;11.30;;
60472;SDS011;46318;52.716;6.444;2024-02-21T13:26:44;24.88;;;22.20;;
60472;SDS011;46318;52.716;6.444;2024-02-21T13:29:09;28.52;;;23.98;;
60472;SDS011;46318;52.716;6.444;2024-02-21T13:31:35;19.40;;;16.63;;
60472;SDS011;46318;52.716;6.444;2024-02-21T13:34:01;19.85;;;16.75;;
60472;SDS011;46318;52.716;6.444;2024-02-21T13:36:28;13.43;;;12.20;;
60472;SDS011;46318;52.716;6.444;2024-02-21T13:38:54;13.25;;;10.52;;
60472;SDS011;46318;52.716;6.444;2024-02-21T13:41:20;11.63;;;10.43;;
60472;SDS011;46318;52.716;6.444;2024-02-21T13:43:48;12.63;;;9.95;;
60472;SDS011;46318;52.716;6.444;2024-02-21T13:46:14;12.05;;;9.00;;
60472;SDS011;46318;52.716;6.444;2024-02-21T13:48:39;12.02;;;9.30;;
60472;SDS011;46318;52.716;6.444;2024-02-21T13:51:05;16.27;;;10.65;;
60472;SDS011;46318;52.716;6.444;2024-02-21T13:53:31;19.30;;;15.98;;
60472;SDS011;46318;52.716;6.444;2024-02-21T13:55:57;17.58;;;15.82;;
60472;SDS011;46318;52.716;6.444;2024-02-21T13:58:22;20.38;;;18.13;;
60472;SDS011;46318;52.716;6.444;2024-02-21T14:00:50;15.15;;;12.93;;
60472;SDS011;46318;52.716;6.444;2024-02-21T14:03:15;29.40;;;24.02;;
60472;SDS011;46318;52.716;6.444;2024-02-21T14:05:42;35.17;;;27.10;;
60472;SDS011;46318;52.716;6.444;2024-02-21T14:08:07;16.27;;;13.43;;
60472;SDS011;46318;52.716;6.444;2024-02-21T14:10:33;14.88;;;13.18;;
60472;SDS011;46318;52.716;6.444;2024-02-21T14:12:59;28.23;;;25.00;;
60472;SDS011;46318;52.716;6.444;2024-02-21T14:15:25;20.00;;;17.48;;
60472;SDS011;46318;52.716;6.444;2024-02-21T14:17:51;24.80;;;18.52;;
60472;SDS011;46318;52.716;6.444;2024-02-21T14:20:17;26.00;;;21.17;;
60472;SDS011;46318;52.716;6.444;2024-02-21T14:22:42;19.50;;;15.75;;
60472;SDS011;46318;52.716;6.444;2024-02-21T14:25:08;22.63;;;18.83;;
60472;SDS011;46318;52.716;6.444;2024-02-21T14:27:34;17.60;;;13.73;;
60472;SDS011;46318;52.716;6.444;2024-02-21T14:30:03;14.73;;;10.25;;
60472;SDS011;46318;52.716;6.444;2024-02-21T14:32:29;11.13;;;10.02;;
60472;SDS011;46318;52.716;6.444;2024-02-21T14:34:55;12.50;;;10.70;;